Time;durP1;ratioP1;P1;durP2;ratioP2;P2;SDS_P1;SDS_P2;PMS_P1;PMS_P2;Temp;Humidity;BMP_temperature;BMP_pressure;BME280_temperature;BME280_humidity;BME280_pressure;Samples;Min_cycle;Max_cycle;Signal;HPM_P1;HPM_P2
2021/06/10 00:01:33;;;;;;;13.38;12.00;;;21.50;69.10;;;;;;20828609;28;20033;-20
2021/06/10 00:11:34;;;;;;;13.38;12.05;;;21.50;69.00;;;;;;20824795;28;20036;-20
2021/06/10 00:21:34;;;;;;;12.98;11.18;;;21.50;68.90;;;;;;20818353;28;20397;-20
2021/06/10 00:31:35;;;;;;;13.73;12.05;;;21.50;68.90;;;;;;20832784;23;20082;-19
2021/06/10 00:41:37;;;;;;;12.93;11.73;;;21.50;69.10;;;;;;20884055;28;20044;-19
2021/06/10 00:51:39;;;;;;;13.02;11.73;;;21.40;68.50;;;;;;20860913;28;20067;-19
2021/06/10 01:01:39;;;;;;;11.35;10.23;;;21.40;68.80;;;;;;20832457;28;20067;-19
2021/06/10 01:11:57;;;;;;;11.02;9.90;;;21.40;68.20;;;;;;20833513;28;20029;-19
2021/06/10 01:22:01;;;;;;;12.13;10.93;;;21.40;68.10;;;;;;20845126;28;20025;-19
2021/06/10 01:32:02;;;;;;;11.73;10.52;;;21.40;68.00;;;;;;20852752;28;20545;-19
2021/06/10 01:42:03;;;;;;;11.68;10.52;;;21.40;68.30;;;;;;20848650;28;20041;-20
2021/06/10 01:52:06;;;;;;;11.95;10.75;;;21.40;67.80;;;;;;20851550;28;20022;-20
2021/06/10 02:02:07;;;;;;;10.90;9.75;;;21.30;67.60;;;;;;20848214;28;20037;-20
2021/06/10 02:12:09;;;;;;;11.85;10.55;;;21.30;67.50;;;;;;20843332;28;20033;-20
2021/06/10 02:22:10;;;;;;;11.85;10.85;;;21.30;67.40;;;;;;20830601;28;20033;-19
2021/06/10 02:32:11;;;;;;;11.27;10.17;;;21.30;67.30;;;;;;20839523;28;20441;-19
2021/06/10 02:42:14;;;;;;;12.07;10.07;;;21.20;67.10;;;;;;20828407;28;20510;-19
2021/06/10 02:52:17;;;;;;;11.27;9.93;;;21.20;66.90;;;;;;20827576;28;20028;-21
2021/06/10 03:02:19;;;;;;;11.38;10.18;;;21.30;67.00;;;;;;20827081;28;20021;-21
2021/06/10 03:12:20;;;;;;;10.60;9.60;;;21.30;67.10;;;;;;20830203;28;20104;-21
2021/06/10 03:22:21;;;;;;;11.15;9.85;;;21.30;66.90;;;;;;20824850;28;20025;-20
2021/06/10 03:32:22;;;;;;;11.07;9.98;;;21.30;67.00;;;;;;20824237;28;20037;-20
2021/06/10 03:42:23;;;;;;;14.02;10.32;;;21.20;66.80;;;;;;20824067;28;20038;-21
2021/06/10 03:52:26;;;;;;;11.48;10.25;;;21.20;66.60;;;;;;20823094;28;20017;-20
2021/06/10 04:02:26;;;;;;;10.25;9.18;;;21.20;66.60;;;;;;20822574;28;20088;-21
2021/06/10 04:12:27;;;;;;;10.23;9.17;;;21.20;66.60;;;;;;20832281;28;20048;-20
2021/06/10 04:22:27;;;;;;;11.83;10.73;;;21.20;66.40;;;;;;20828811;28;20463;-20
2021/06/10 04:32:28;;;;;;;12.02;10.82;;;21.20;66.40;;;;;;20832327;28;20480;-20
2021/06/10 04:42:29;;;;;;;11.55;10.40;;;21.10;66.20;;;;;;20819118;28;20112;-20
2021/06/10 04:52:29;;;;;;;11.75;10.63;;;21.10;66.00;;;;;;20832448;28;20033;-21
2021/06/10 05:02:30;;;;;;;18.55;12.20;;;21.20;66.10;;;;;;20831741;28;20481;-20
2021/06/10 05:12:31;;;;;;;10.23;9.25;;;21.20;66.10;;;;;;20851345;28;20492;-20
2021/06/10 05:22:31;;;;;;;14.82;9.77;;;21.20;66.10;;;;;;20841190;28;20033;-20
2021/06/10 05:32:32;;;;;;;12.80;10.10;;;21.20;66.10;;;;;;20845258;28;20047;-21
2021/06/10 05:42:33;;;;;;;18.38;11.88;;;21.30;66.00;;;;;;20837915;28;20038;-20
2021/06/10 05:52:35;;;;;;;18.50;11.77;;;21.30;66.20;;;;;;20832747;28;20091;-20
2021/06/10 06:02:35;;;;;;;16.08;11.20;;;21.30;66.70;;;;;;20845280;28;20471;-20
2021/06/10 06:12:39;;;;;;;26.13;12.55;;;21.40;66.50;;;;;;20842958;28;20032;-20
2021/06/10 06:22:44;;;;;;;21.38;11.52;;;21.40;66.80;;;;;;20859164;28;20026;-20
2021/06/10 06:32:44;;;;;;;23.90;12.43;;;21.40;66.80;;;;;;20766790;28;20084;-20
2021/06/10 06:42:45;;;;;;;15.95;10.70;;;21.40;66.80;;;;;;20768190;28;20483;-20
2021/06/10 06:52:46;;;;;;;14.35;10.48;;;21.40;66.90;;;;;;20765574;28;20128;-20
2021/06/10 07:02:46;;;;;;;16.80;10.63;;;21.40;67.00;;;;;;20756983;28;20060;-20
2021/06/10 07:12:47;;;;;;;12.88;10.07;;;21.50;66.90;;;;;;20745192;28;20026;-19
2021/06/10 07:22:48;;;;;;;12.98;9.98;;;21.50;67.10;;;;;;20755529;28;20037;-20
2021/06/10 07:32:49;;;;;;;17.83;10.25;;;21.40;67.10;;;;;;20751938;28;20486;-20
2021/06/10 07:42:50;;;;;;;17.67;9.95;;;21.50;67.30;;;;;;20753905;28;20033;-21
2021/06/10 07:52:50;;;;;;;19.75;11.18;;;21.60;67.20;;;;;;20756923;28;20022;-21
2021/06/10 08:02:57;;;;;;;10.18;8.85;;;21.60;67.30;;;;;;20749557;28;20029;-19
2021/06/10 08:12:58;;;;;;;13.68;9.35;;;21.60;67.60;;;;;;20750903;28;20068;-20
2021/06/10 08:23:00;;;;;;;13.40;9.70;;;21.70;67.70;;;;;;20756751;28;20502;-21
2021/06/10 08:33:00;;;;;;;10.40;8.73;;;21.70;67.80;;;;;;20757709;28;20480;-20
2021/06/10 08:43:02;;;;;;;11.95;8.48;;;21.80;67.70;;;;;;20752216;28;20037;-21
2021/06/10 08:53:04;;;;;;;11.60;8.52;;;21.70;67.70;;;;;;20741171;28;20104;-20
2021/06/10 09:03:06;;;;;;;12.40;9.73;;;21.80;67.80;;;;;;20741065;28;20022;-19
2021/06/10 09:13:07;;;;;;;13.80;9.63;;;21.80;67.90;;;;;;20742682;28;20048;-20
2021/06/10 09:23:27;;;;;;;13.27;9.60;;;21.80;67.90;;;;;;20737180;28;20053;-22
2021/06/10 09:33:39;;;;;;;14.52;10.45;;;21.90;68.30;;;;;;20736782;28;20042;-20
2021/06/10 09:43:44;;;;;;;11.48;9.20;;;22.10;68.90;;;;;;20743469;28;20108;-19
2021/06/10 09:53:45;;;;;;;12.63;9.63;;;22.00;68.60;;;;;;20767312;28;20034;-20
2021/06/10 10:03:47;;;;;;;15.32;11.38;;;22.10;68.80;;;;;;20753991;28;20034;-21
2021/06/10 10:13:51;;;;;;;15.18;10.18;;;22.00;69.00;;;;;;20761439;28;20479;-21
2021/06/10 10:24:03;;;;;;;11.85;9.32;;;22.00;68.90;;;;;;20773184;28;20064;-20
2021/06/10 10:34:04;;;;;;;13.05;10.55;;;22.00;69.10;;;;;;20751703;28;20032;-20
2021/06/10 10:44:22;;;;;;;11.07;9.90;;;22.10;68.80;;;;;;20754639;28;20026;-20
2021/06/10 10:54:31;;;;;;;13.57;9.97;;;22.20;70.00;;;;;;20758390;28;20033;-20
2021/06/10 11:05:01;;;;;;;10.15;9.15;;;22.20;69.20;;;;;;20763257;28;20471;-21
2021/06/10 11:15:04;;;;;;;11.05;8.13;;;22.10;68.80;;;;;;20755985;28;20030;-19
2021/06/10 11:25:08;;;;;;;12.80;9.88;;;22.10;68.50;;;;;;20746464;28;20088;-19
2021/06/10 11:35:08;;;;;;;11.82;8.25;;;22.10;69.00;;;;;;20757272;28;20046;-20
2021/06/10 11:45:09;;;;;;;8.95;8.13;;;22.20;68.30;;;;;;20756520;28;20038;-20
2021/06/10 11:55:10;;;;;;;10.73;7.75;;;22.20;68.10;;;;;;20760275;28;20029;-20
2021/06/10 12:05:16;;;;;;;8.60;6.65;;;22.10;67.30;;;;;;20772878;28;20034;-20
2021/06/10 12:15:34;;;;;;;8.23;6.40;;;22.10;66.90;;;;;;20761571;28;20040;-18
2021/06/10 12:25:34;;;;;;;7.88;6.88;;;22.10;66.40;;;;;;20756393;28;20033;-21
2021/06/10 12:35:36;;;;;;;10.90;7.27;;;22.20;66.10;;;;;;20746033;28;20637;-21
2021/06/10 12:45:38;;;;;;;8.52;5.75;;;22.20;65.10;;;;;;20750024;28;20439;-21
2021/06/10 12:55:38;;;;;;;7.68;5.90;;;22.20;64.70;;;;;;20744174;28;20057;-21
2021/06/10 13:05:39;;;;;;;9.93;6.13;;;22.10;64.80;;;;;;20743878;28;20092;-20
2021/06/10 13:15:41;;;;;;;13.00;5.93;;;22.10;65.00;;;;;;20749322;28;20080;-21
2021/06/10 13:25:43;;;;;;;6.70;5.32;;;22.10;64.60;;;;;;20753576;28;20030;-21
2021/06/10 13:35:46;;;;;;;7.53;5.65;;;22.10;64.70;;;;;;20759094;28;20037;-21
2021/06/10 13:45:46;;;;;;;11.70;5.43;;;22.10;64.80;;;;;;20764392;28;20482;-22
2021/06/10 13:55:47;;;;;;;11.18;4.95;;;22.10;65.40;;;;;;20751994;28;20036;-19
2021/06/10 14:05:52;;;;;;;5.78;4.75;;;22.10;65.00;;;;;;20753788;28;20045;-21
2021/06/10 14:15:53;;;;;;;7.80;4.85;;;22.10;65.10;;;;;;20751845;28;20034;-20
2021/06/10 14:25:53;;;;;;;4.90;4.30;;;22.10;65.20;;;;;;20749175;28;20093;-20
2021/06/10 14:35:54;;;;;;;6.53;5.03;;;22.00;65.10;;;;;;20749358;28;20033;-21
2021/06/10 14:45:54;;;;;;;8.23;5.10;;;22.10;65.20;;;;;;20748081;28;20466;-20
2021/06/10 14:55:55;;;;;;;11.32;5.65;;;22.10;65.20;;;;;;20759662;28;20034;-21
2021/06/10 15:05:56;;;;;;;7.22;4.97;;;22.10;65.20;;;;;;20748459;28;20367;-20
2021/06/10 15:15:57;;;;;;;5.88;4.13;;;22.10;65.30;;;;;;20762916;28;20030;-20
2021/06/10 15:25:58;;;;;;;5.53;4.10;;;22.10;65.30;;;;;;20752422;28;20497;-20
2021/06/10 15:35:58;;;;;;;6.60;4.90;;;22.00;65.30;;;;;;20750481;28;20177;-19
2021/06/10 15:45:59;;;;;;;4.35;3.72;;;22.10;65.30;;;;;;20759521;28;20037;-19
2021/06/10 15:56:05;;;;;;;6.35;4.90;;;22.20;65.30;;;;;;20773922;28;20058;-21
2021/06/10 16:06:05;;;;;;;6.65;4.28;;;22.20;65.20;;;;;;20781089;28;20053;-19
2021/06/10 16:16:07;;;;;;;5.78;3.50;;;22.20;64.90;;;;;;20776138;28;20518;-20
2021/06/10 16:26:08;;;;;;;4.60;3.92;;;22.30;64.40;;;;;;20759978;28;20100;-19
2021/06/10 16:36:10;;;;;;;4.50;3.85;;;22.40;64.10;;;;;;20751642;28;20540;-19
2021/06/10 16:46:11;;;;;;;7.03;4.00;;;22.40;63.90;;;;;;20749761;28;20025;-19
2021/06/10 16:56:11;;;;;;;6.07;3.65;;;22.40;63.70;;;;;;20726106;28;20490;-20
2021/06/10 17:06:12;;;;;;;7.10;3.75;;;22.60;63.40;;;;;;20743439;28;20030;-21
2021/06/10 17:16:14;;;;;;;6.45;3.90;;;22.60;63.20;;;;;;20758331;28;20542;-27
2021/06/10 17:26:15;;;;;;;13.23;5.00;;;22.60;62.80;;;;;;20772936;28;20081;-20
2021/06/10 17:36:15;;;;;;;9.98;5.50;;;22.60;62.50;;;;;;20744473;28;20026;-21
2021/06/10 17:46:16;;;;;;;6.88;6.18;;;22.60;62.70;;;;;;20743979;28;20034;-21
2021/06/10 17:56:16;;;;;;;7.00;5.43;;;22.50;62.70;;;;;;20746140;28;20038;-20
2021/06/10 18:06:17;;;;;;;5.68;5.00;;;22.40;62.80;;;;;;20753994;28;20534;-21
2021/06/10 18:16:18;;;;;;;8.47;5.53;;;22.40;63.00;;;;;;20750242;28;20038;-20
2021/06/10 18:26:18;;;;;;;6.80;5.28;;;22.30;63.10;;;;;;20749598;28;20075;-21
2021/06/10 18:36:20;;;;;;;6.50;5.35;;;22.30;63.30;;;;;;20732582;23;20096;-19
2021/06/10 18:46:21;;;;;;;8.68;4.95;;;22.30;63.50;;;;;;20709785;28;20026;-21
2021/06/10 18:56:23;;;;;;;7.75;5.68;;;22.30;63.70;;;;;;20696880;28;20065;-20
2021/06/10 19:06:23;;;;;;;10.63;5.18;;;22.20;63.80;;;;;;20692061;28;20034;-20
2021/06/10 19:16:24;;;;;;;6.63;4.95;;;22.20;64.00;;;;;;20676061;28;20027;-19
2021/06/10 19:26:25;;;;;;;10.95;4.97;;;22.20;64.10;;;;;;20674277;28;20534;-20
2021/06/10 19:36:26;;;;;;;8.35;5.32;;;22.20;64.10;;;;;;20678407;28;20061;-19
2021/06/10 19:46:26;;;;;;;16.08;6.00;;;22.20;64.30;;;;;;20671787;28;20506;-19
2021/06/10 19:56:27;;;;;;;12.00;5.53;;;22.10;64.60;;;;;;20681112;28;20410;-20
2021/06/10 20:06:28;;;;;;;13.27;6.07;;;22.10;65.00;;;;;;20680366;28;20060;-20
2021/06/10 20:16:28;;;;;;;10.02;5.15;;;22.10;65.20;;;;;;20691951;28;20034;-20
2021/06/10 20:26:34;;;;;;;6.82;4.50;;;22.10;65.40;;;;;;20692349;28;20086;-20
2021/06/10 20:36:34;;;;;;;11.32;4.35;;;22.10;65.70;;;;;;20683136;28;20038;-20
2021/06/10 20:46:35;;;;;;;9.50;4.50;;;22.00;65.60;;;;;;20691522;28;20078;-20
2021/06/10 20:56:38;;;;;;;6.53;4.25;;;22.00;65.70;;;;;;20685991;28;20033;-20
2021/06/10 21:06:38;;;;;;;11.75;4.80;;;22.00;65.70;;;;;;20682537;28;20034;-20
2021/06/10 21:16:39;;;;;;;10.73;5.00;;;22.00;66.40;;;;;;20653907;28;20491;-20
2021/06/10 21:26:40;;;;;;;15.40;6.23;;;22.10;66.80;;;;;;20675521;28;20053;-20
2021/06/10 21:36:41;;;;;;;13.80;5.97;;;22.10;66.90;;;;;;20689626;28;20480;-20
2021/06/10 21:46:44;;;;;;;13.73;6.03;;;22.20;67.30;;;;;;20700617;28;20041;-15
2021/06/10 21:56:45;;;;;;;11.32;5.82;;;22.20;67.60;;;;;;20695679;28;20505;-15
2021/06/10 22:06:45;;;;;;;8.73;5.88;;;22.20;68.00;;;;;;20696875;28;20037;-16
2021/06/10 22:16:46;;;;;;;9.48;5.45;;;22.20;67.90;;;;;;20697968;28;20037;-15
2021/06/10 22:26:47;;;;;;;11.02;5.63;;;22.20;67.30;;;;;;20679136;28;20112;-16
2021/06/10 22:36:48;;;;;;;11.88;5.22;;;22.20;67.20;;;;;;20677742;28;20572;-16
2021/06/10 22:46:49;;;;;;;12.98;6.45;;;22.00;67.60;;;;;;20674143;28;20026;-17
2021/06/10 22:56:50;;;;;;;10.70;4.70;;;22.10;67.30;;;;;;20661445;28;20053;-16
2021/06/10 23:06:50;;;;;;;9.57;5.43;;;22.10;67.00;;;;;;20680068;28;20026;-18
2021/06/10 23:16:51;;;;;;;5.78;3.80;;;22.00;66.70;;;;;;20693100;28;20034;-17
2021/06/10 23:26:52;;;;;;;7.25;4.50;;;22.00;66.40;;;;;;20691430;28;20022;-16
2021/06/10 23:36:52;;;;;;;6.60;4.10;;;22.00;66.20;;;;;;20690756;28;20104;-16
2021/06/10 23:46:53;;;;;;;9.77;4.88;;;21.90;66.00;;;;;;20683634;28;20030;-16
2021/06/10 23:56:54;;;;;;;7.43;4.53;;;22.00;65.90;;;;;;20663224;28;20026;-17
